sensor_id;sensor_type;location;lat;lon;timestamp;P1;durP1;ratioP1;P2;durP2;ratioP2
31782;SDS011;18351;47.560;9.708;2024-01-15T00:01:26;27.98;;;15.63;;
31782;SDS011;18351;47.560;9.708;2024-01-15T00:03:52;26.73;;;14.00;;
31782;SDS011;18351;47.560;9.708;2024-01-15T00:06:17;25.45;;;14.35;;
31782;SDS011;18351;47.560;9.708;2024-01-15T00:08:43;25.55;;;15.32;;
31782;SDS011;18351;47.560;9.708;2024-01-15T00:11:08;27.85;;;15.68;;
31782;SDS011;18351;47.560;9.708;2024-01-15T00:13:34;28.25;;;16.60;;
31782;SDS011;18351;47.560;9.708;2024-01-15T00:15:59;28.95;;;17.02;;
31782;SDS011;18351;47.560;9.708;2024-01-15T00:18:25;30.58;;;17.55;;
31782;SDS011;18351;47.560;9.708;2024-01-15T00:20:50;32.55;;;18.00;;
31782;SDS011;18351;47.560;9.708;2024-01-15T00:23:16;29.83;;;17.38;;
31782;SDS011;18351;47.560;9.708;2024-01-15T00:25:42;30.73;;;17.40;;
31782;SDS011;18351;47.560;9.708;2024-01-15T00:28:07;30.00;;;16.83;;
31782;SDS011;18351;47.560;9.708;2024-01-15T00:30:33;31.40;;;18.00;;
31782;SDS011;18351;47.560;9.708;2024-01-15T00:32:58;31.30;;;17.45;;
31782;SDS011;18351;47.560;9.708;2024-01-15T00:35:24;31.77;;;18.27;;
31782;SDS011;18351;47.560;9.708;2024-01-15T00:37:49;29.00;;;17.10;;
31782;SDS011;18351;47.560;9.708;2024-01-15T00:40:15;28.85;;;17.40;;
31782;SDS011;18351;47.560;9.708;2024-01-15T00:42:41;32.55;;;18.88;;
31782;SDS011;18351;47.560;9.708;2024-01-15T00:45:06;29.92;;;18.00;;
31782;SDS011;18351;47.560;9.708;2024-01-15T00:47:33;28.73;;;17.33;;
31782;SDS011;18351;47.560;9.708;2024-01-15T00:49:59;31.23;;;17.73;;
31782;SDS011;18351;47.560;9.708;2024-01-15T00:52:25;31.42;;;16.63;;
31782;SDS011;18351;47.560;9.708;2024-01-15T00:54:50;28.02;;;17.40;;
31782;SDS011;18351;47.560;9.708;2024-01-15T00:57:16;30.20;;;17.73;;
31782;SDS011;18351;47.560;9.708;2024-01-15T00:59:43;27.80;;;16.10;;
31782;SDS011;18351;47.560;9.708;2024-01-15T01:02:09;27.25;;;17.52;;
31782;SDS011;18351;47.560;9.708;2024-01-15T01:04:35;31.17;;;16.55;;
31782;SDS011;18351;47.560;9.708;2024-01-15T01:07:01;28.38;;;15.73;;
31782;SDS011;18351;47.560;9.708;2024-01-15T01:09:26;32.00;;;18.10;;
31782;SDS011;18351;47.560;9.708;2024-01-15T01:11:54;28.10;;;15.98;;
31782;SDS011;18351;47.560;9.708;2024-01-15T01:14:20;27.70;;;16.00;;
31782;SDS011;18351;47.560;9.708;2024-01-15T01:16:46;26.45;;;17.42;;
31782;SDS011;18351;47.560;9.708;2024-01-15T01:19:12;27.40;;;15.85;;
31782;SDS011;18351;47.560;9.708;2024-01-15T01:21:37;31.17;;;17.52;;
31782;SDS011;18351;47.560;9.708;2024-01-15T01:24:03;28.58;;;16.42;;
31782;SDS011;18351;47.560;9.708;2024-01-15T01:26:29;26.95;;;16.13;;
31782;SDS011;18351;47.560;9.708;2024-01-15T01:28:55;30.80;;;16.40;;
31782;SDS011;18351;47.560;9.708;2024-01-15T01:31:20;30.02;;;15.27;;
31782;SDS011;18351;47.560;9.708;2024-01-15T01:33:46;34.30;;;17.30;;
31782;SDS011;18351;47.560;9.708;2024-01-15T01:36:11;30.92;;;16.35;;
31782;SDS011;18351;47.560;9.708;2024-01-15T01:38:37;31.77;;;17.83;;
31782;SDS011;18351;47.560;9.708;2024-01-15T01:41:05;29.05;;;17.17;;
31782;SDS011;18351;47.560;9.708;2024-01-15T01:43:30;29.73;;;16.77;;
31782;SDS011;18351;47.560;9.708;2024-01-15T01:45:56;34.25;;;16.98;;
31782;SDS011;18351;47.560;9.708;2024-01-15T01:48:25;28.83;;;16.60;;
31782;SDS011;18351;47.560;9.708;2024-01-15T01:50:52;33.13;;;16.83;;
31782;SDS011;18351;47.560;9.708;2024-01-15T01:53:20;29.95;;;16.50;;
31782;SDS011;18351;47.560;9.708;2024-01-15T01:55:46;27.63;;;16.50;;
31782;SDS011;18351;47.560;9.708;2024-01-15T01:58:13;32.60;;;17.05;;
31782;SDS011;18351;47.560;9.708;2024-01-15T02:00:39;33.75;;;17.00;;
31782;SDS011;18351;47.560;9.708;2024-01-15T02:03:05;30.92;;;16.85;;
31782;SDS011;18351;47.560;9.708;2024-01-15T02:05:31;31.48;;;15.95;;
31782;SDS011;18351;47.560;9.708;2024-01-15T02:07:57;31.65;;;16.73;;
31782;SDS011;18351;47.560;9.708;2024-01-15T02:10:22;38.15;;;18.38;;
31782;SDS011;18351;47.560;9.708;2024-01-15T02:12:48;33.25;;;16.23;;
31782;SDS011;18351;47.560;9.708;2024-01-15T02:15:14;35.22;;;17.27;;
31782;SDS011;18351;47.560;9.708;2024-01-15T02:20:25;34.85;;;17.05;;
31782;SDS011;18351;47.560;9.708;2024-01-15T02:22:51;33.47;;;17.20;;
31782;SDS011;18351;47.560;9.708;2024-01-15T02:25:16;31.48;;;16.85;;
31782;SDS011;18351;47.560;9.708;2024-01-15T02:27:43;30.35;;;15.77;;
31782;SDS011;18351;47.560;9.708;2024-01-15T02:30:09;27.75;;;13.93;;
31782;SDS011;18351;47.560;9.708;2024-01-15T02:32:37;26.90;;;13.40;;
31782;SDS011;18351;47.560;9.708;2024-01-15T02:35:03;25.40;;;12.40;;
31782;SDS011;18351;47.560;9.708;2024-01-15T02:37:29;24.42;;;13.77;;
31782;SDS011;18351;47.560;9.708;2024-01-15T02:39:54;21.60;;;11.82;;
31782;SDS011;18351;47.560;9.708;2024-01-15T02:42:20;19.48;;;10.85;;
31782;SDS011;18351;47.560;9.708;2024-01-15T02:44:45;17.48;;;10.35;;
31782;SDS011;18351;47.560;9.708;2024-01-15T02:47:11;17.95;;;9.75;;
31782;SDS011;18351;47.560;9.708;2024-01-15T02:49:36;17.42;;;9.98;;
31782;SDS011;18351;47.560;9.708;2024-01-15T02:52:02;17.33;;;9.07;;
31782;SDS011;18351;47.560;9.708;2024-01-15T02:54:28;17.45;;;9.63;;
31782;SDS011;18351;47.560;9.708;2024-01-15T02:56:53;20.52;;;10.00;;
31782;SDS011;18351;47.560;9.708;2024-01-15T02:59:19;19.65;;;9.52;;
31782;SDS011;18351;47.560;9.708;2024-01-15T03:01:44;17.10;;;9.57;;
31782;SDS011;18351;47.560;9.708;2024-01-15T03:04:10;17.88;;;9.95;;
31782;SDS011;18351;47.560;9.708;2024-01-15T03:06:35;16.90;;;9.70;;
31782;SDS011;18351;47.560;9.708;2024-01-15T03:09:01;18.33;;;9.82;;
31782;SDS011;18351;47.560;9.708;2024-01-15T03:11:28;17.10;;;9.95;;
31782;SDS011;18351;47.560;9.708;2024-01-15T03:13:54;16.63;;;9.43;;
31782;SDS011;18351;47.560;9.708;2024-01-15T03:16:20;16.38;;;9.48;;
31782;SDS011;18351;47.560;9.708;2024-01-15T03:18:45;17.13;;;9.75;;
31782;SDS011;18351;47.560;9.708;2024-01-15T03:21:11;17.15;;;9.45;;
31782;SDS011;18351;47.560;9.708;2024-01-15T03:23:36;64.20;;;24.60;;
31782;SDS011;18351;47.560;9.708;2024-01-15T03:26:03;36.47;;;15.48;;
31782;SDS011;18351;47.560;9.708;2024-01-15T03:28:28;18.83;;;10.02;;
31782;SDS011;18351;47.560;9.708;2024-01-15T03:30:55;20.10;;;9.73;;
31782;SDS011;18351;47.560;9.708;2024-01-15T03:33:20;17.13;;;9.40;;
31782;SDS011;18351;47.560;9.708;2024-01-15T03:35:46;17.02;;;9.45;;
31782;SDS011;18351;47.560;9.708;2024-01-15T03:38:12;18.25;;;9.60;;
31782;SDS011;18351;47.560;9.708;2024-01-15T03:40:37;18.02;;;9.63;;
31782;SDS011;18351;47.560;9.708;2024-01-15T03:43:03;16.55;;;9.10;;
31782;SDS011;18351;47.560;9.708;2024-01-15T03:45:28;17.50;;;9.30;;
31782;SDS011;18351;47.560;9.708;2024-01-15T03:47:54;18.58;;;9.48;;
31782;SDS011;18351;47.560;9.708;2024-01-15T03:50:19;14.77;;;8.52;;
31782;SDS011;18351;47.560;9.708;2024-01-15T03:52:45;17.48;;;9.07;;
31782;SDS011;18351;47.560;9.708;2024-01-15T03:55:10;15.35;;;8.77;;
31782;SDS011;18351;47.560;9.708;2024-01-15T03:57:36;15.68;;;8.90;;
31782;SDS011;18351;47.560;9.708;2024-01-15T04:00:02;19.98;;;9.85;;
31782;SDS011;18351;47.560;9.708;2024-01-15T04:02:28;17.80;;;9.35;;
31782;SDS011;18351;47.560;9.708;2024-01-15T04:04:54;18.15;;;8.57;;
31782;SDS011;18351;47.560;9.708;2024-01-15T04:07:19;14.73;;;9.25;;
31782;SDS011;18351;47.560;9.708;2024-01-15T04:09:45;18.17;;;9.23;;
31782;SDS011;18351;47.560;9.708;2024-01-15T04:12:10;17.05;;;9.23;;
31782;SDS011;18351;47.560;9.708;2024-01-15T04:14:36;17.60;;;9.55;;
31782;SDS011;18351;47.560;9.708;2024-01-15T04:17:01;20.83;;;10.38;;
31782;SDS011;18351;47.560;9.708;2024-01-15T04:19:27;17.08;;;10.02;;
31782;SDS011;18351;47.560;9.708;2024-01-15T04:21:53;21.05;;;11.27;;
31782;SDS011;18351;47.560;9.708;2024-01-15T04:24:18;20.83;;;10.80;;
31782;SDS011;18351;47.560;9.708;2024-01-15T04:26:44;23.92;;;11.18;;
31782;SDS011;18351;47.560;9.708;2024-01-15T04:29:10;19.75;;;10.60;;
31782;SDS011;18351;47.560;9.708;2024-01-15T04:31:35;20.65;;;11.70;;
31782;SDS011;18351;47.560;9.708;2024-01-15T04:34:01;23.20;;;11.65;;
31782;SDS011;18351;47.560;9.708;2024-01-15T04:36:26;23.05;;;12.18;;
31782;SDS011;18351;47.560;9.708;2024-01-15T04:38:52;21.67;;;11.70;;
31782;SDS011;18351;47.560;9.708;2024-01-15T04:41:17;21.02;;;12.35;;
31782;SDS011;18351;47.560;9.708;2024-01-15T04:43:43;23.13;;;12.13;;
31782;SDS011;18351;47.560;9.708;2024-01-15T04:46:09;26.40;;;12.27;;
31782;SDS011;18351;47.560;9.708;2024-01-15T04:48:34;22.77;;;11.93;;
31782;SDS011;18351;47.560;9.708;2024-01-15T04:51:00;23.20;;;11.38;;
31782;SDS011;18351;47.560;9.708;2024-01-15T04:53:29;25.50;;;11.93;;
31782;SDS011;18351;47.560;9.708;2024-01-15T04:55:54;24.45;;;12.38;;
31782;SDS011;18351;47.560;9.708;2024-01-15T04:58:20;24.05;;;12.57;;
31782;SDS011;18351;47.560;9.708;2024-01-15T05:00:45;24.20;;;13.13;;
31782;SDS011;18351;47.560;9.708;2024-01-15T05:03:11;22.10;;;11.48;;
31782;SDS011;18351;47.560;9.708;2024-01-15T05:05:36;21.40;;;11.27;;
31782;SDS011;18351;47.560;9.708;2024-01-15T05:08:02;24.95;;;12.63;;
31782;SDS011;18351;47.560;9.708;2024-01-15T05:10:28;21.60;;;11.90;;
31782;SDS011;18351;47.560;9.708;2024-01-15T05:12:53;24.02;;;12.82;;
31782;SDS011;18351;47.560;9.708;2024-01-15T05:15:19;25.55;;;12.82;;
31782;SDS011;18351;47.560;9.708;2024-01-15T05:17:44;22.52;;;12.00;;
31782;SDS011;18351;47.560;9.708;2024-01-15T05:20:10;24.67;;;13.35;;
31782;SDS011;18351;47.560;9.708;2024-01-15T05:22:36;24.77;;;12.48;;
31782;SDS011;18351;47.560;9.708;2024-01-15T05:25:01;25.35;;;12.50;;
31782;SDS011;18351;47.560;9.708;2024-01-15T05:27:27;25.23;;;12.38;;
31782;SDS011;18351;47.560;9.708;2024-01-15T05:29:52;28.60;;;13.40;;
31782;SDS011;18351;47.560;9.708;2024-01-15T05:32:18;25.25;;;13.07;;
31782;SDS011;18351;47.560;9.708;2024-01-15T05:34:43;27.20;;;13.20;;
31782;SDS011;18351;47.560;9.708;2024-01-15T05:37:09;23.08;;;12.13;;
31782;SDS011;18351;47.560;9.708;2024-01-15T05:39:34;23.38;;;11.60;;
31782;SDS011;18351;47.560;9.708;2024-01-15T05:42:00;25.42;;;12.93;;
31782;SDS011;18351;47.560;9.708;2024-01-15T05:44:25;22.30;;;11.05;;
31782;SDS011;18351;47.560;9.708;2024-01-15T05:46:51;20.30;;;11.30;;
31782;SDS011;18351;47.560;9.708;2024-01-15T05:49:16;25.10;;;11.68;;
31782;SDS011;18351;47.560;9.708;2024-01-15T05:51:42;23.40;;;11.18;;
31782;SDS011;18351;47.560;9.708;2024-01-15T05:54:08;20.63;;;11.27;;
31782;SDS011;18351;47.560;9.708;2024-01-15T05:56:33;20.50;;;10.68;;
31782;SDS011;18351;47.560;9.708;2024-01-15T05:58:59;24.30;;;11.25;;
31782;SDS011;18351;47.560;9.708;2024-01-15T06:01:25;21.45;;;10.48;;
31782;SDS011;18351;47.560;9.708;2024-01-15T06:03:50;18.98;;;9.90;;
31782;SDS011;18351;47.560;9.708;2024-01-15T06:06:18;18.35;;;9.15;;
31782;SDS011;18351;47.560;9.708;2024-01-15T06:08:43;17.40;;;9.45;;
31782;SDS011;18351;47.560;9.708;2024-01-15T06:11:09;17.80;;;9.13;;
31782;SDS011;18351;47.560;9.708;2024-01-15T06:13:34;22.50;;;10.63;;
31782;SDS011;18351;47.560;9.708;2024-01-15T06:16:00;21.80;;;10.63;;
31782;SDS011;18351;47.560;9.708;2024-01-15T06:18:25;19.23;;;9.43;;
31782;SDS011;18351;47.560;9.708;2024-01-15T06:20:51;18.77;;;9.43;;
31782;SDS011;18351;47.560;9.708;2024-01-15T06:23:16;17.27;;;8.75;;
31782;SDS011;18351;47.560;9.708;2024-01-15T06:25:42;18.42;;;9.55;;
31782;SDS011;18351;47.560;9.708;2024-01-15T06:28:07;16.30;;;8.15;;
31782;SDS011;18351;47.560;9.708;2024-01-15T06:30:33;22.33;;;9.35;;
31782;SDS011;18351;47.560;9.708;2024-01-15T06:32:58;15.60;;;8.20;;
31782;SDS011;18351;47.560;9.708;2024-01-15T06:35:24;13.52;;;7.53;;
31782;SDS011;18351;47.560;9.708;2024-01-15T06:37:50;16.58;;;8.25;;
31782;SDS011;18351;47.560;9.708;2024-01-15T06:40:15;16.20;;;8.25;;
31782;SDS011;18351;47.560;9.708;2024-01-15T06:42:41;15.05;;;8.18;;
31782;SDS011;18351;47.560;9.708;2024-01-15T06:45:06;17.70;;;7.90;;
31782;SDS011;18351;47.560;9.708;2024-01-15T06:47:32;18.15;;;8.45;;
31782;SDS011;18351;47.560;9.708;2024-01-15T06:49:58;14.63;;;8.52;;
31782;SDS011;18351;47.560;9.708;2024-01-15T06:52:23;13.18;;;7.47;;
31782;SDS011;18351;47.560;9.708;2024-01-15T06:54:49;13.85;;;7.78;;
31782;SDS011;18351;47.560;9.708;2024-01-15T06:57:15;18.92;;;8.32;;
31782;SDS011;18351;47.560;9.708;2024-01-15T06:59:40;12.77;;;6.85;;
31782;SDS011;18351;47.560;9.708;2024-01-15T07:02:06;14.73;;;7.43;;
31782;SDS011;18351;47.560;9.708;2024-01-15T07:04:31;16.90;;;7.63;;
31782;SDS011;18351;47.560;9.708;2024-01-15T07:06:57;13.00;;;6.80;;
31782;SDS011;18351;47.560;9.708;2024-01-15T07:09:22;14.23;;;7.13;;
31782;SDS011;18351;47.560;9.708;2024-01-15T07:11:48;15.60;;;7.57;;
31782;SDS011;18351;47.560;9.708;2024-01-15T07:14:14;13.20;;;7.80;;
31782;SDS011;18351;47.560;9.708;2024-01-15T07:16:39;14.80;;;7.57;;
31782;SDS011;18351;47.560;9.708;2024-01-15T07:19:05;11.85;;;6.15;;
31782;SDS011;18351;47.560;9.708;2024-01-15T07:21:31;12.75;;;6.30;;
31782;SDS011;18351;47.560;9.708;2024-01-15T07:23:57;13.60;;;7.22;;
31782;SDS011;18351;47.560;9.708;2024-01-15T07:26:22;13.43;;;6.97;;
31782;SDS011;18351;47.560;9.708;2024-01-15T07:28:48;12.93;;;7.30;;
31782;SDS011;18351;47.560;9.708;2024-01-15T07:31:15;14.32;;;7.20;;
31782;SDS011;18351;47.560;9.708;2024-01-15T07:33:41;14.57;;;6.95;;
31782;SDS011;18351;47.560;9.708;2024-01-15T07:36:06;13.15;;;7.22;;
31782;SDS011;18351;47.560;9.708;2024-01-15T07:38:32;12.88;;;6.97;;
31782;SDS011;18351;47.560;9.708;2024-01-15T07:40:58;14.75;;;7.10;;
31782;SDS011;18351;47.560;9.708;2024-01-15T07:43:23;15.68;;;6.38;;
31782;SDS011;18351;47.560;9.708;2024-01-15T07:45:49;14.02;;;7.05;;
31782;SDS011;18351;47.560;9.708;2024-01-15T07:48:14;12.95;;;7.82;;
31782;SDS011;18351;47.560;9.708;2024-01-15T07:50:40;18.45;;;7.65;;
31782;SDS011;18351;47.560;9.708;2024-01-15T07:53:05;11.73;;;6.68;;
31782;SDS011;18351;47.560;9.708;2024-01-15T07:55:31;10.82;;;6.03;;
31782;SDS011;18351;47.560;9.708;2024-01-15T07:57:57;13.48;;;7.38;;
31782;SDS011;18351;47.560;9.708;2024-01-15T08:00:24;13.05;;;6.85;;
31782;SDS011;18351;47.560;9.708;2024-01-15T08:02:50;12.73;;;6.68;;
31782;SDS011;18351;47.560;9.708;2024-01-15T08:05:16;12.57;;;6.53;;
31782;SDS011;18351;47.560;9.708;2024-01-15T08:07:41;10.57;;;6.50;;
31782;SDS011;18351;47.560;9.708;2024-01-15T08:10:07;14.43;;;6.70;;
31782;SDS011;18351;47.560;9.708;2024-01-15T08:12:33;13.55;;;6.82;;
31782;SDS011;18351;47.560;9.708;2024-01-15T08:14:58;14.05;;;7.55;;
31782;SDS011;18351;47.560;9.708;2024-01-15T08:17:24;14.82;;;6.90;;
31782;SDS011;18351;47.560;9.708;2024-01-15T08:19:53;16.10;;;7.65;;
31782;SDS011;18351;47.560;9.708;2024-01-15T08:22:19;14.63;;;7.72;;
31782;SDS011;18351;47.560;9.708;2024-01-15T08:24:45;17.92;;;7.75;;
31782;SDS011;18351;47.560;9.708;2024-01-15T08:27:10;14.93;;;8.10;;
31782;SDS011;18351;47.560;9.708;2024-01-15T08:29:36;19.73;;;8.45;;
31782;SDS011;18351;47.560;9.708;2024-01-15T08:32:02;15.80;;;8.30;;
31782;SDS011;18351;47.560;9.708;2024-01-15T08:34:27;17.60;;;8.98;;
31782;SDS011;18351;47.560;9.708;2024-01-15T08:36:53;15.88;;;8.30;;
31782;SDS011;18351;47.560;9.708;2024-01-15T08:39:19;17.98;;;8.80;;
31782;SDS011;18351;47.560;9.708;2024-01-15T08:41:44;19.63;;;8.57;;
31782;SDS011;18351;47.560;9.708;2024-01-15T08:44:11;18.35;;;9.43;;
31782;SDS011;18351;47.560;9.708;2024-01-15T08:46:37;17.73;;;8.13;;
31782;SDS011;18351;47.560;9.708;2024-01-15T08:49:03;16.60;;;8.90;;
31782;SDS011;18351;47.560;9.708;2024-01-15T08:51:28;17.88;;;8.48;;
31782;SDS011;18351;47.560;9.708;2024-01-15T08:53:55;22.20;;;9.68;;
31782;SDS011;18351;47.560;9.708;2024-01-15T08:56:21;17.08;;;8.68;;
31782;SDS011;18351;47.560;9.708;2024-01-15T08:58:47;18.75;;;8.57;;
31782;SDS011;18351;47.560;9.708;2024-01-15T09:01:12;15.93;;;7.95;;
31782;SDS011;18351;47.560;9.708;2024-01-15T09:03:39;17.85;;;9.48;;
31782;SDS011;18351;47.560;9.708;2024-01-15T09:06:06;15.38;;;7.45;;
31782;SDS011;18351;47.560;9.708;2024-01-15T09:08:32;13.45;;;8.30;;
31782;SDS011;18351;47.560;9.708;2024-01-15T09:10:57;13.57;;;7.72;;
31782;SDS011;18351;47.560;9.708;2024-01-15T09:13:23;14.82;;;8.18;;
31782;SDS011;18351;47.560;9.708;2024-01-15T09:15:49;19.50;;;9.38;;
31782;SDS011;18351;47.560;9.708;2024-01-15T09:18:14;20.65;;;9.93;;
31782;SDS011;18351;47.560;9.708;2024-01-15T09:20:40;15.32;;;8.18;;
31782;SDS011;18351;47.560;9.708;2024-01-15T09:23:05;17.58;;;7.95;;
31782;SDS011;18351;47.560;9.708;2024-01-15T09:25:31;15.45;;;8.43;;
31782;SDS011;18351;47.560;9.708;2024-01-15T09:27:56;18.67;;;8.80;;
31782;SDS011;18351;47.560;9.708;2024-01-15T09:30:23;14.45;;;8.55;;
31782;SDS011;18351;47.560;9.708;2024-01-15T09:32:48;18.52;;;8.65;;
31782;SDS011;18351;47.560;9.708;2024-01-15T09:35:14;17.52;;;9.30;;
31782;SDS011;18351;47.560;9.708;2024-01-15T09:37:40;19.17;;;9.73;;
31782;SDS011;18351;47.560;9.708;2024-01-15T09:40:06;19.70;;;9.70;;
31782;SDS011;18351;47.560;9.708;2024-01-15T09:42:38;20.83;;;10.30;;
31782;SDS011;18351;47.560;9.708;2024-01-15T09:45:04;20.05;;;10.35;;
31782;SDS011;18351;47.560;9.708;2024-01-15T09:47:30;17.85;;;9.18;;
31782;SDS011;18351;47.560;9.708;2024-01-15T09:49:55;21.30;;;10.23;;
31782;SDS011;18351;47.560;9.708;2024-01-15T09:52:23;18.00;;;9.57;;
31782;SDS011;18351;47.560;9.708;2024-01-15T09:54:50;19.75;;;10.35;;
31782;SDS011;18351;47.560;9.708;2024-01-15T09:57:16;20.58;;;9.82;;
31782;SDS011;18351;47.560;9.708;2024-01-15T09:59:42;19.25;;;9.43;;
31782;SDS011;18351;47.560;9.708;2024-01-15T10:02:11;19.08;;;9.25;;
31782;SDS011;18351;47.560;9.708;2024-01-15T10:04:42;18.92;;;9.95;;
31782;SDS011;18351;47.560;9.708;2024-01-15T10:07:08;22.15;;;11.15;;
31782;SDS011;18351;47.560;9.708;2024-01-15T10:09:34;21.27;;;8.98;;
31782;SDS011;18351;47.560;9.708;2024-01-15T10:12:00;20.25;;;9.38;;
31782;SDS011;18351;47.560;9.708;2024-01-15T10:14:26;18.67;;;9.38;;
31782;SDS011;18351;47.560;9.708;2024-01-15T10:16:51;16.40;;;9.57;;
31782;SDS011;18351;47.560;9.708;2024-01-15T10:19:17;15.77;;;9.10;;
31782;SDS011;18351;47.560;9.708;2024-01-15T10:21:42;18.13;;;9.85;;
31782;SDS011;18351;47.560;9.708;2024-01-15T10:24:08;14.63;;;8.73;;
31782;SDS011;18351;47.560;9.708;2024-01-15T10:26:34;20.58;;;9.20;;
31782;SDS011;18351;47.560;9.708;2024-01-15T10:28:59;19.70;;;10.40;;
31782;SDS011;18351;47.560;9.708;2024-01-15T10:31:25;16.88;;;9.50;;
31782;SDS011;18351;47.560;9.708;2024-01-15T10:33:52;14.48;;;8.80;;
31782;SDS011;18351;47.560;9.708;2024-01-15T10:36:17;19.27;;;8.02;;
31782;SDS011;18351;47.560;9.708;2024-01-15T10:38:43;16.58;;;8.55;;
31782;SDS011;18351;47.560;9.708;2024-01-15T10:41:09;15.15;;;8.25;;
31782;SDS011;18351;47.560;9.708;2024-01-15T10:43:35;22.13;;;8.00;;
31782;SDS011;18351;47.560;9.708;2024-01-15T10:46:01;17.05;;;8.75;;
31782;SDS011;18351;47.560;9.708;2024-01-15T10:48:27;14.40;;;7.88;;
31782;SDS011;18351;47.560;9.708;2024-01-15T10:50:56;13.27;;;7.10;;
31782;SDS011;18351;47.560;9.708;2024-01-15T10:53:24;14.00;;;8.10;;
31782;SDS011;18351;47.560;9.708;2024-01-15T10:55:50;14.52;;;8.40;;
31782;SDS011;18351;47.560;9.708;2024-01-15T10:58:19;15.77;;;7.10;;
31782;SDS011;18351;47.560;9.708;2024-01-15T11:00:45;15.20;;;8.05;;
31782;SDS011;18351;47.560;9.708;2024-01-15T11:03:11;11.60;;;7.22;;
31782;SDS011;18351;47.560;9.708;2024-01-15T11:05:38;12.10;;;7.60;;
31782;SDS011;18351;47.560;9.708;2024-01-15T11:08:06;12.38;;;7.40;;
31782;SDS011;18351;47.560;9.708;2024-01-15T11:10:45;14.70;;;7.65;;
31782;SDS011;18351;47.560;9.708;2024-01-15T11:13:14;14.45;;;8.15;;
31782;SDS011;18351;47.560;9.708;2024-01-15T11:15:55;16.85;;;7.53;;
31782;SDS011;18351;47.560;9.708;2024-01-15T11:18:22;9.85;;;6.28;;
31782;SDS011;18351;47.560;9.708;2024-01-15T11:23:51;11.60;;;6.82;;
31782;SDS011;18351;47.560;9.708;2024-01-15T11:29:02;11.60;;;7.22;;
31782;SDS011;18351;47.560;9.708;2024-01-15T11:34:06;12.23;;;6.65;;
31782;SDS011;18351;47.560;9.708;2024-01-15T11:41:55;9.23;;;6.13;;
31782;SDS011;18351;47.560;9.708;2024-01-15T11:44:25;9.52;;;5.85;;
31782;SDS011;18351;47.560;9.708;2024-01-15T11:46:58;10.98;;;6.07;;
31782;SDS011;18351;47.560;9.708;2024-01-15T11:52:12;8.88;;;5.35;;
31782;SDS011;18351;47.560;9.708;2024-01-15T11:54:42;9.82;;;5.80;;
31782;SDS011;18351;47.560;9.708;2024-01-15T11:57:41;10.23;;;5.13;;
31782;SDS011;18351;47.560;9.708;2024-01-15T12:00:10;9.88;;;5.07;;
31782;SDS011;18351;47.560;9.708;2024-01-15T12:02:38;9.10;;;4.80;;
31782;SDS011;18351;47.560;9.708;2024-01-15T12:05:11;8.60;;;5.32;;
31782;SDS011;18351;47.560;9.708;2024-01-15T12:07:43;6.30;;;4.20;;
31782;SDS011;18351;47.560;9.708;2024-01-15T12:10:13;5.95;;;4.00;;
31782;SDS011;18351;47.560;9.708;2024-01-15T12:12:43;8.88;;;4.18;;
31782;SDS011;18351;47.560;9.708;2024-01-15T12:15:27;6.90;;;4.30;;
31782;SDS011;18351;47.560;9.708;2024-01-15T12:17:55;9.77;;;4.57;;
31782;SDS011;18351;47.560;9.708;2024-01-15T12:20:25;6.65;;;4.65;;
31782;SDS011;18351;47.560;9.708;2024-01-15T12:22:54;8.52;;;4.90;;
31782;SDS011;18351;47.560;9.708;2024-01-15T12:25:21;7.85;;;5.38;;
31782;SDS011;18351;47.560;9.708;2024-01-15T12:27:47;8.57;;;5.07;;
31782;SDS011;18351;47.560;9.708;2024-01-15T12:30:13;16.75;;;5.25;;
31782;SDS011;18351;47.560;9.708;2024-01-15T12:32:40;10.02;;;5.03;;
31782;SDS011;18351;47.560;9.708;2024-01-15T12:35:12;6.90;;;4.55;;
31782;SDS011;18351;47.560;9.708;2024-01-15T12:37:41;7.82;;;5.10;;
31782;SDS011;18351;47.560;9.708;2024-01-15T12:40:08;9.07;;;6.05;;
31782;SDS011;18351;47.560;9.708;2024-01-15T12:42:35;8.70;;;5.22;;
31782;SDS011;18351;47.560;9.708;2024-01-15T12:45:02;9.27;;;5.70;;
31782;SDS011;18351;47.560;9.708;2024-01-15T12:47:29;9.80;;;5.32;;
31782;SDS011;18351;47.560;9.708;2024-01-15T12:49:56;8.40;;;5.45;;
31782;SDS011;18351;47.560;9.708;2024-01-15T12:52:22;9.80;;;5.95;;
31782;SDS011;18351;47.560;9.708;2024-01-15T12:54:49;7.90;;;4.80;;
31782;SDS011;18351;47.560;9.708;2024-01-15T12:57:15;7.03;;;4.60;;
31782;SDS011;18351;47.560;9.708;2024-01-15T12:59:41;7.07;;;4.47;;
31782;SDS011;18351;47.560;9.708;2024-01-15T13:02:07;10.15;;;5.50;;
31782;SDS011;18351;47.560;9.708;2024-01-15T13:04:33;11.13;;;5.38;;
31782;SDS011;18351;47.560;9.708;2024-01-15T13:06:58;8.93;;;5.55;;
31782;SDS011;18351;47.560;9.708;2024-01-15T13:09:24;8.55;;;5.25;;
31782;SDS011;18351;47.560;9.708;2024-01-15T13:11:49;12.00;;;6.00;;
31782;SDS011;18351;47.560;9.708;2024-01-15T13:14:16;9.43;;;5.38;;
31782;SDS011;18351;47.560;9.708;2024-01-15T13:16:41;9.80;;;5.35;;
31782;SDS011;18351;47.560;9.708;2024-01-15T13:19:07;6.85;;;4.55;;
31782;SDS011;18351;47.560;9.708;2024-01-15T13:21:34;5.28;;;3.40;;
31782;SDS011;18351;47.560;9.708;2024-01-15T13:23:59;5.75;;;3.78;;
31782;SDS011;18351;47.560;9.708;2024-01-15T13:26:25;8.55;;;4.47;;
31782;SDS011;18351;47.560;9.708;2024-01-15T13:28:50;8.60;;;4.78;;
31782;SDS011;18351;47.560;9.708;2024-01-15T13:31:16;8.80;;;5.90;;
31782;SDS011;18351;47.560;9.708;2024-01-15T13:33:42;7.97;;;4.57;;
31782;SDS011;18351;47.560;9.708;2024-01-15T13:36:07;6.72;;;3.80;;
31782;SDS011;18351;47.560;9.708;2024-01-15T13:38:35;7.93;;;4.72;;
31782;SDS011;18351;47.560;9.708;2024-01-15T13:41:02;9.82;;;3.63;;
31782;SDS011;18351;47.560;9.708;2024-01-15T13:43:29;6.47;;;4.25;;
31782;SDS011;18351;47.560;9.708;2024-01-15T13:45:55;9.18;;;5.78;;
31782;SDS011;18351;47.560;9.708;2024-01-15T13:48:21;5.68;;;3.88;;
31782;SDS011;18351;47.560;9.708;2024-01-15T13:50:46;7.45;;;4.78;;
31782;SDS011;18351;47.560;9.708;2024-01-15T13:53:12;12.60;;;5.82;;
31782;SDS011;18351;47.560;9.708;2024-01-15T13:55:38;9.00;;;5.47;;
31782;SDS011;18351;47.560;9.708;2024-01-15T13:58:03;9.05;;;6.25;;
31782;SDS011;18351;47.560;9.708;2024-01-15T14:00:30;10.10;;;6.30;;
31782;SDS011;18351;47.560;9.708;2024-01-15T14:02:57;8.55;;;5.00;;
31782;SDS011;18351;47.560;9.708;2024-01-15T14:05:22;7.97;;;4.55;;
31782;SDS011;18351;47.560;9.708;2024-01-15T14:07:48;8.70;;;4.95;;
31782;SDS011;18351;47.560;9.708;2024-01-15T14:10:14;7.45;;;4.70;;
31782;SDS011;18351;47.560;9.708;2024-01-15T14:12:39;7.00;;;4.32;;
31782;SDS011;18351;47.560;9.708;2024-01-15T14:15:06;9.07;;;4.95;;
31782;SDS011;18351;47.560;9.708;2024-01-15T14:17:32;10.70;;;6.07;;
31782;SDS011;18351;47.560;9.708;2024-01-15T14:19:57;14.20;;;8.77;;
31782;SDS011;18351;47.560;9.708;2024-01-15T14:22:23;9.18;;;5.55;;
31782;SDS011;18351;47.560;9.708;2024-01-15T14:24:48;9.23;;;5.80;;
31782;SDS011;18351;47.560;9.708;2024-01-15T14:27:14;9.50;;;5.70;;
31782;SDS011;18351;47.560;9.708;2024-01-15T14:29:40;14.32;;;8.45;;
31782;SDS011;18351;47.560;9.708;2024-01-15T14:32:06;10.60;;;5.90;;
31782;SDS011;18351;47.560;9.708;2024-01-15T14:34:31;8.52;;;5.22;;
31782;SDS011;18351;47.560;9.708;2024-01-15T14:36:57;8.60;;;5.25;;
31782;SDS011;18351;47.560;9.708;2024-01-15T14:39:23;10.20;;;6.15;;
31782;SDS011;18351;47.560;9.708;2024-01-15T14:41:49;11.25;;;6.53;;
31782;SDS011;18351;47.560;9.708;2024-01-15T14:44:14;9.25;;;6.07;;
31782;SDS011;18351;47.560;9.708;2024-01-15T14:46:40;10.15;;;6.60;;